Time;durP1;ratioP1;P1;durP2;ratioP2;P2;SDS_P1;SDS_P2;PMS_P1;PMS_P2;Temp;Humidity;BMP_temperature;BMP_pressure;BME280_temperature;BME280_humidity;BME280_pressure;Samples;Min_cycle;Max_cycle;Signal;HPM_P1;HPM_P2
2023/07/21 00:03:18;;;;;;;2.20;1.60;;;;;;;21.93;44.40;99688.91;10329006;28;20069;-70
2023/07/21 00:08:20;;;;;;;3.08;1.88;;;;;;;21.80;44.17;99673.50;10326819;28;20643;-72
2023/07/21 00:13:21;;;;;;;3.47;2.00;;;;;;;21.87;44.79;99688.72;10331546;28;20061;-70
2023/07/21 00:18:23;;;;;;;3.78;2.25;;;;;;;21.85;44.68;99688.09;10328457;28;20057;-67
2023/07/21 00:23:26;;;;;;;3.63;1.75;;;;;;;21.76;45.66;99672.28;10323768;28;20230;-73
2023/07/21 00:28:28;;;;;;;2.92;1.73;;;;;;;21.78;45.30;99673.72;10324333;28;20686;-71
2023/07/21 00:33:29;;;;;;;3.60;2.17;;;;;;;21.72;45.32;99671.84;10325551;28;20153;-71
2023/07/21 00:38:32;;;;;;;2.78;1.90;;;;;;;21.75;45.54;99671.44;10330919;28;20466;-71
2023/07/21 00:43:33;;;;;;;2.70;1.60;;;;;;;21.76;45.79;99664.16;10326096;28;20054;-71
2023/07/21 00:48:36;;;;;;;2.88;1.70;;;;;;;21.74;45.63;99664.38;10329039;28;20136;-68
2023/07/21 00:53:37;;;;;;;3.40;2.10;;;;;;;21.75;45.65;99655.19;10325100;28;20100;-71
2023/07/21 00:58:39;;;;;;;2.45;1.80;;;;;;;21.68;46.02;99654.38;10327148;28;20132;-70
2023/07/21 01:03:41;;;;;;;7.35;2.60;;;;;;;21.58;45.75;99645.84;10321476;28;20528;-69
2023/07/21 01:08:43;;;;;;;2.67;2.42;;;;;;;21.61;46.29;99645.44;10325122;28;20053;-70
2023/07/21 01:13:45;;;;;;;3.97;2.10;;;;;;;21.54;47.65;99657.09;10323434;28;20129;-70
2023/07/21 01:18:49;;;;;;;2.95;2.40;;;;;;;21.54;47.31;99642.72;10326671;28;20062;-69
2023/07/21 01:23:58;;;;;;;7.80;2.40;;;;;;;21.57;47.65;99657.72;10323198;28;20150;-71
2023/07/21 01:29:00;;;;;;;4.82;2.17;;;;;;;21.43;47.58;99633.31;10329742;28;20768;-71
2023/07/21 01:34:04;;;;;;;2.75;1.75;;;;;;;21.40;49.62;99641.03;10335592;28;20073;-71
2023/07/21 01:39:06;;;;;;;3.47;1.90;;;;;;;21.47;50.26;99650.00;10334003;28;20057;-69
2023/07/21 01:44:08;;;;;;;4.00;2.50;;;;;;;21.45;51.94;99644.78;10332701;28;20069;-71
2023/07/21 01:49:10;;;;;;;2.53;2.10;;;;;;;21.36;51.17;99651.44;10325697;28;20151;-70
2023/07/21 01:54:28;;;;;;;3.92;1.90;;;;;;;21.33;51.61;99663.53;10332657;28;20144;-70
2023/07/21 01:59:30;;;;;;;4.50;2.00;;;;;;;21.06;52.32;99686.19;10331522;28;20139;-68
2023/07/21 02:04:33;;;;;;;2.80;2.35;;;;;;;21.04;52.57;99680.16;10330704;28;20139;-69
2023/07/21 02:09:34;;;;;;;2.30;2.10;;;;;;;20.93;53.04;99673.50;10328704;28;20145;-71
2023/07/21 02:14:35;;;;;;;4.18;3.00;;;;;;;20.83;55.32;99672.00;10329734;28;20044;-69
2023/07/21 02:19:37;;;;;;;4.03;1.83;;;;;;;20.97;55.77;99663.91;10334060;28;20153;-70
2023/07/21 02:24:38;;;;;;;5.07;2.78;;;;;;;21.01;57.14;99643.53;10334455;28;20152;-69
2023/07/21 02:29:40;;;;;;;3.78;2.50;;;;;;;21.03;55.59;99633.31;10332156;28;20718;-70
2023/07/21 02:34:41;;;;;;;2.85;2.55;;;;;;;21.02;55.48;99639.78;10330103;28;20554;-72
2023/07/21 02:39:43;;;;;;;4.55;2.33;;;;;;;20.87;57.90;99610.22;10332049;28;20130;-70
2023/07/21 02:44:45;;;;;;;3.53;2.53;;;;;;;20.95;56.74;99611.91;10332043;28;20070;-69
2023/07/21 02:49:46;;;;;;;3.47;2.80;;;;;;;20.81;58.26;99601.06;10330850;28;20220;-71
2023/07/21 02:54:48;;;;;;;3.10;2.80;;;;;;;20.82;58.15;99583.81;10347248;28;20046;-70
2023/07/21 02:59:50;;;;;;;5.38;2.70;;;;;;;20.81;58.88;99601.06;10367120;28;20049;-69
2023/07/21 03:04:52;;;;;;;3.97;2.92;;;;;;;20.78;59.62;99587.94;10334279;28;20037;-69
2023/07/21 03:09:54;;;;;;;4.75;3.20;;;;;;;20.76;59.43;99598.16;10331418;28;20069;-70
2023/07/21 03:14:55;;;;;;;3.60;3.30;;;;;;;20.59;59.52;99597.66;10331322;28;20133;-70
2023/07/21 03:19:56;;;;;;;3.20;2.90;;;;;;;20.59;59.06;99591.44;10327165;28;21168;-71
2023/07/21 03:24:58;;;;;;;3.10;2.80;;;;;;;20.59;59.02;99581.44;10326407;28;20129;-71
2023/07/21 03:30:01;;;;;;;3.60;2.78;;;;;;;20.58;58.39;99589.75;10326257;28;20112;-69
2023/07/21 03:35:04;;;;;;;3.53;3.03;;;;;;;20.29;59.59;99587.19;10326127;28;20054;-70
2023/07/21 03:40:07;;;;;;;4.85;2.65;;;;;;;20.36;59.72;99597.22;10327565;28;20197;-69
2023/07/21 03:45:09;;;;;;;2.92;2.67;;;;;;;20.39;59.15;99594.91;10327872;28;20050;-68
2023/07/21 03:50:10;;;;;;;4.95;2.65;;;;;;;20.34;59.13;99600.09;10318538;28;20053;-70
2023/07/21 03:55:12;;;;;;;4.75;3.70;;;;;;;20.32;59.71;99594.06;10329554;28;20487;-72
2023/07/21 04:00:14;;;;;;;3.38;3.08;;;;;;;20.31;59.82;99593.25;10328409;28;20054;-70
2023/07/21 04:05:15;;;;;;;4.25;3.20;;;;;;;20.30;60.22;99601.56;10329415;28;20046;-70
2023/07/21 04:10:17;;;;;;;3.95;3.33;;;;;;;20.30;60.58;99615.06;10323912;28;20053;-70
2023/07/21 04:15:18;;;;;;;8.75;3.33;;;;;;;20.26;60.69;99619.19;10329866;28;20145;-70
2023/07/21 04:20:22;;;;;;;4.80;3.55;;;;;;;20.22;61.24;99628.75;10327576;28;20069;-71
2023/07/21 04:25:23;;;;;;;;;;;;;;;20.21;61.47;99614.41;10326642;28;20860;-71
2023/07/21 04:30:25;;;;;;;3.78;3.42;;;;;;;20.22;61.16;99615.22;10329081;28;20012;-73
2023/07/21 04:35:26;;;;;;;5.00;3.20;;;;;;;20.15;63.01;99617.91;10326469;28;20057;-72
2023/07/21 04:40:28;;;;;;;4.72;3.38;;;;;;;20.13;63.17;99588.41;10330965;28;20072;-70
2023/07/21 04:45:29;;;;;;;3.65;3.10;;;;;;;20.12;64.05;99586.72;10328315;28;20069;-70
2023/07/21 04:50:30;;;;;;;3.22;2.92;;;;;;;20.09;64.06;99581.72;10326834;28;20780;-71
2023/07/21 04:55:32;;;;;;;3.65;3.35;;;;;;;20.02;63.96;99578.16;10330365;28;20152;-70
2023/07/21 05:00:34;;;;;;;3.95;3.47;;;;;;;20.07;62.97;99597.31;10327669;28;20065;-72
2023/07/21 05:05:35;;;;;;;3.90;3.60;;;;;;;20.04;63.84;99611.22;10314267;28;20054;-71
2023/07/21 05:10:37;;;;;;;3.53;2.78;;;;;;;20.02;62.93;99607.88;10317170;28;20258;-72
2023/07/21 05:15:38;;;;;;;3.90;2.92;;;;;;;19.88;63.21;99608.88;10314667;28;20132;-71
2023/07/21 05:20:40;;;;;;;5.55;3.28;;;;;;;19.88;62.87;99606.16;10318643;28;20058;-73
2023/07/21 05:25:42;;;;;;;3.22;2.92;;;;;;;19.77;64.07;99610.19;10326134;28;20060;-70
2023/07/21 05:30:44;;;;;;;3.33;2.72;;;;;;;19.72;64.06;99618.91;10325206;28;20127;-71
2023/07/21 05:35:45;;;;;;;3.88;3.58;;;;;;;19.71;63.13;99619.09;10322735;28;20046;-71
2023/07/21 05:40:56;;;;;;;3.55;3.03;;;;;;;19.71;63.61;99619.97;10323375;28;20054;-67
2023/07/21 05:45:58;;;;;;;3.72;2.50;;;;;;;19.67;63.12;99610.56;10329502;28;20050;-70
2023/07/21 05:50:59;;;;;;;5.25;3.72;;;;;;;19.63;63.45;99603.91;10321731;28;20054;-70
2023/07/21 05:56:01;;;;;;;2.92;2.70;;;;;;;19.66;63.18;99603.50;10321507;28;20046;-68
2023/07/21 06:01:03;;;;;;;4.03;2.88;;;;;;;19.64;63.51;99597.47;10314538;28;20121;-68
2023/07/21 06:06:05;;;;;;;3.92;2.78;;;;;;;19.65;63.97;99592.91;10320665;28;20055;-70
2023/07/21 06:11:06;;;;;;;3.47;2.60;;;;;;;19.75;63.68;99596.91;10314926;28;20061;-69
2023/07/21 06:16:08;;;;;;;5.28;3.05;;;;;;;19.72;63.42;99589.19;10312913;28;20060;-67
2023/07/21 06:21:13;;;;;;;7.20;3.17;;;;;;;19.83;63.05;99603.22;10318553;28;20089;-67
2023/07/21 06:26:14;;;;;;;2.90;2.63;;;;;;;19.76;63.03;99601.28;10319900;28;20057;-68
2023/07/21 06:31:16;;;;;;;3.08;2.78;;;;;;;19.65;63.79;99591.06;10318201;28;20107;-68
2023/07/21 06:36:17;;;;;;;3.70;2.67;;;;;;;19.80;63.64;99603.63;10321394;28;20152;-69
2023/07/21 06:41:19;;;;;;;4.30;3.20;;;;;;;19.84;62.88;99611.09;10315365;28;20061;-68
2023/07/21 06:46:21;;;;;;;3.15;2.83;;;;;;;19.80;62.48;99600.91;10318503;28;20141;-70
2023/07/21 06:51:22;;;;;;;4.60;3.22;;;;;;;19.80;61.71;99615.22;10316941;28;20056;-69
2023/07/21 06:56:24;;;;;;;5.82;2.58;;;;;;;19.77;61.66;99608.38;10314887;28;20061;-70
2023/07/21 07:01:26;;;;;;;6.40;3.05;;;;;;;19.78;60.86;99610.03;10317685;28;20643;-68
2023/07/21 07:06:28;;;;;;;3.63;2.75;;;;;;;19.77;61.14;99608.38;10314232;28;20057;-70
2023/07/21 07:11:30;;;;;;;3.38;2.50;;;;;;;19.90;61.37;99614.88;10314087;28;20133;-67
2023/07/21 07:16:33;;;;;;;3.42;2.70;;;;;;;20.10;60.96;99632.03;10313892;28;20072;-69
2023/07/21 07:21:34;;;;;;;9.73;3.08;;;;;;;20.21;60.31;99630.63;10315257;28;20152;-69
2023/07/21 07:26:36;;;;;;;3.88;2.60;;;;;;;20.32;60.46;99626.50;10316739;28;20058;-68
2023/07/21 07:31:39;;;;;;;2.95;2.65;;;;;;;20.43;61.11;99620.50;10319569;28;20716;-70
2023/07/21 07:36:40;;;;;;;3.05;2.70;;;;;;;20.55;60.92;99631.56;10319299;28;20053;-69
2023/07/21 07:41:44;;;;;;;3.78;3.03;;;;;;;20.56;61.53;99629.69;10321593;28;20686;-70
2023/07/21 07:46:46;;;;;;;3.75;3.28;;;;;;;20.64;60.15;99618.69;10320384;28;20185;-70
2023/07/21 07:51:48;;;;;;;6.15;3.13;;;;;;;20.79;60.23;99629.34;10351099;28;20065;-70
2023/07/21 07:56:51;;;;;;;3.17;2.85;;;;;;;20.77;59.00;99626.84;10323831;28;20068;-69
2023/07/21 08:01:52;;;;;;;3.25;2.95;;;;;;;20.67;59.61;99621.00;10313264;28;20774;-72
2023/07/21 08:06:54;;;;;;;2.75;2.55;;;;;;;20.84;60.28;99626.88;10317141;28;20055;-72
2023/07/21 08:11:57;;;;;;;3.30;3.00;;;;;;;21.01;59.19;99632.72;10320553;28;20057;-72
2023/07/21 08:17:02;;;;;;;3.58;2.60;;;;;;;21.13;58.79;99622.91;10312944;28;20049;-72
2023/07/21 08:22:07;;;;;;;3.53;2.38;;;;;;;21.26;58.17;99629.38;10314619;28;20449;-73
2023/07/21 08:27:10;;;;;;;2.47;2.25;;;;;;;21.34;57.44;99621.88;10315328;28;20192;-70
2023/07/21 08:32:13;;;;;;;2.80;1.95;;;;;;;21.32;56.45;99617.72;10313956;28;20532;-71
2023/07/21 08:37:14;;;;;;;2.33;2.05;;;;;;;21.49;56.50;99618.94;10320708;28;20060;-71
2023/07/21 08:42:17;;;;;;;2.80;1.92;;;;;;;21.63;56.21;99619.81;10326394;28;20215;-73
2023/07/21 08:47:20;;;;;;;2.30;2.10;;;;;;;21.56;55.75;99626.25;10334644;28;20049;-72
2023/07/21 08:52:21;;;;;;;2.17;1.97;;;;;;;21.54;55.77;99618.34;10324205;28;20092;-72
2023/07/21 08:57:23;;;;;;;1.92;1.70;;;;;;;21.66;56.02;99613.13;10319631;28;20807;-72
2023/07/21 09:02:48;;;;;;;6.65;2.70;;;;;;;21.80;56.57;99631.00;10322971;28;20057;-71
2023/07/21 09:07:49;;;;;;;4.28;2.40;;;;;;;21.86;55.90;99629.34;10311809;28;20487;-72
2023/07/21 09:12:52;;;;;;;4.55;2.20;;;;;;;21.75;55.98;99622.66;10322591;28;20129;-71
2023/07/21 09:17:54;;;;;;;3.33;2.40;;;;;;;21.83;56.01;99633.28;10321175;28;20057;-73
2023/07/21 09:22:56;;;;;;;4.40;2.10;;;;;;;21.88;56.17;99632.66;10318835;28;20097;-71
2023/07/21 09:27:57;;;;;;;5.00;2.28;;;;;;;21.92;55.39;99630.34;10324413;28;21079;-72
2023/07/21 09:33:01;;;;;;;2.92;2.63;;;;;;;21.93;56.58;99623.88;10324046;28;20056;-72
2023/07/21 09:38:02;;;;;;;3.75;2.13;;;;;;;22.09;56.63;99628.00;10321610;28;20166;-72
2023/07/21 09:43:04;;;;;;;3.15;2.40;;;;;;;22.20;55.81;99630.88;10320403;28;20183;-73
2023/07/21 09:48:06;;;;;;;2.60;2.20;;;;;;;22.24;54.34;99632.09;10314923;28;20433;-72
2023/07/21 09:53:10;;;;;;;2.23;2.03;;;;;;;22.38;53.91;99632.06;10323456;28;20049;-73
2023/07/21 09:58:15;;;;;;;2.60;2.00;;;;;;;22.67;52.80;99613.53;10324266;28;20054;-71
2023/07/21 10:03:17;;;;;;;4.18;2.05;;;;;;;22.58;50.26;99615.72;10324872;28;20798;-74
2023/07/21 10:08:21;;;;;;;2.10;1.90;;;;;;;22.58;51.94;99624.66;10326889;28;20058;-72
2023/07/21 10:13:24;;;;;;;2.47;1.63;;;;;;;22.81;52.77;99628.69;10325699;28;20081;-73
2023/07/21 10:18:25;;;;;;;3.85;1.75;;;;;;;22.95;52.22;99622.13;10316616;28;20500;-72
2023/07/21 10:23:35;;;;;;;3.47;1.80;;;;;;;22.97;51.58;99610.22;10315139;28;20773;-70
2023/07/21 10:28:37;;;;;;;3.00;1.75;;;;;;;22.98;50.64;99620.84;10322629;28;20177;-72
2023/07/21 10:33:38;;;;;;;2.00;1.52;;;;;;;23.01;50.02;99616.88;10321375;28;20100;-74
2023/07/21 10:38:40;;;;;;;3.30;2.03;;;;;;;23.03;49.44;99621.03;10324564;28;20100;-72
2023/07/21 10:43:42;;;;;;;2.20;1.73;;;;;;;22.61;49.75;99615.28;10325735;28;20050;-72
2023/07/21 10:48:43;;;;;;;3.28;1.50;;;;;;;22.51;50.43;99613.03;10326158;28;20053;-72
2023/07/21 10:53:45;;;;;;;1.70;1.60;;;;;;;22.52;49.12;99611.97;10339611;28;20049;-71
2023/07/21 10:58:46;;;;;;;4.40;1.42;;;;;;;22.54;49.91;99615.28;10322797;28;20085;-72
2023/07/21 11:03:48;;;;;;;3.92;1.65;;;;;;;22.66;49.50;99611.91;10321762;28;20132;-73
2023/07/21 11:08:50;;;;;;;3.30;1.63;;;;;;;;;;10329104;28;20062;-70
2023/07/21 11:13:52;;;;;;;1.80;1.38;;;;;;;22.80;49.25;99612.63;10320534;28;20141;-73
2023/07/21 11:18:54;;;;;;;2.75;1.77;;;;;;;22.83;48.14;99610.31;10325403;28;20443;-74
2023/07/21 11:24:00;;;;;;;2.55;2.13;;;;;;;22.87;48.04;99610.72;10319708;28;20057;-73
2023/07/21 11:29:05;;;;;;;2.47;1.90;;;;;;;22.87;48.62;99599.88;10316365;28;20056;-73
2023/07/21 11:34:20;;;;;;;2.15;1.40;;;;;;;22.91;48.22;99592.94;10324286;28;20045;-73
2023/07/21 11:39:22;;;;;;;2.25;1.88;;;;;;;23.09;48.42;99587.59;10322375;28;20072;-76
2023/07/21 11:44:30;;;;;;;2.13;1.38;;;;;;;23.15;47.86;99580.47;10325313;28;20146;-73
2023/07/21 11:49:36;;;;;;;3.38;1.90;;;;;;;23.14;46.52;99586.94;10321709;28;20073;-72
2023/07/21 11:54:43;;;;;;;4.10;3.72;;;;;;;23.09;46.08;99586.75;10316586;28;20065;-72
2023/07/21 11:59:44;;;;;;;2.45;1.33;;;;;;;23.01;46.77;99589.72;10322276;28;20540;-71
2023/07/21 12:04:47;;;;;;;1.77;1.05;;;;;;;23.06;46.33;99595.31;10334230;28;20064;-72
2023/07/21 12:09:48;;;;;;;2.42;1.00;;;;;;;22.99;45.52;99589.13;10330690;28;20060;-71
2023/07/21 12:14:50;;;;;;;3.63;1.60;;;;;;;22.76;45.48;99593.28;10330237;28;20077;-72
2023/07/21 12:19:53;;;;;;;1.70;1.20;;;;;;;22.76;47.08;99601.41;10355719;28;20050;-73
2023/07/21 12:24:55;;;;;;;6.05;1.70;;;;;;;22.68;48.97;99597.06;10338384;28;20070;-74
2023/07/21 12:29:57;;;;;;;4.00;1.65;;;;;;;22.55;48.86;99594.44;10329422;28;20050;-73
2023/07/21 12:34:58;;;;;;;2.55;1.20;;;;;;;22.53;50.11;99602.81;10335695;28;20056;-72
2023/07/21 12:40:00;;;;;;;2.70;1.45;;;;;;;22.31;50.39;99610.44;10335607;28;20058;-72
2023/07/21 12:45:02;;;;;;;5.22;1.80;;;;;;;22.18;51.25;99624.84;10328621;28;20212;-71
2023/07/21 12:50:04;;;;;;;2.83;1.70;;;;;;;22.09;53.74;99628.84;10332040;28;20061;-69
2023/07/21 12:55:06;;;;;;;3.97;1.77;;;;;;;22.03;55.40;99630.50;10334311;28;20056;-71
2023/07/21 13:00:13;;;;;;;4.07;2.47;;;;;;;21.85;57.45;99654.75;10328546;28;20122;-71
2023/07/21 13:05:14;;;;;;;2.80;2.08;;;;;;;21.79;60.42;99656.44;10331285;28;20667;-70
2023/07/21 13:10:16;;;;;;;2.65;1.70;;;;;;;21.36;58.17;99667.69;10328941;28;20057;-71
2023/07/21 13:15:17;;;;;;;1.85;1.48;;;;;;;21.06;61.56;99668.06;10337420;28;20060;-70
2023/07/21 13:20:19;;;;;;;1.98;1.77;;;;;;;21.31;62.71;99667.50;10332974;28;20412;-71
2023/07/21 13:25:20;;;;;;;1.55;1.30;;;;;;;21.45;61.50;99668.31;10339347;28;20053;-69
2023/07/21 13:30:22;;;;;;;2.30;1.77;;;;;;;21.32;61.60;99666.47;10349668;28;20080;-70
2023/07/21 13:35:23;;;;;;;2.55;1.50;;;;;;;21.31;60.74;99671.00;10345889;28;20056;-71
2023/07/21 13:40:25;;;;;;;2.08;1.30;;;;;;;21.29;59.46;99693.94;10334194;28;20623;-70
2023/07/21 13:45:26;;;;;;;5.47;1.30;;;;;;;21.20;58.29;99690.59;10332985;28;20112;-69
2023/07/21 13:50:28;;;;;;;3.10;1.38;;;;;;;21.16;58.26;99683.94;10336330;28;20058;-70
2023/07/21 13:55:30;;;;;;;1.50;0.98;;;;;;;21.25;59.07;99695.38;10333108;28;20042;-71
2023/07/21 14:00:32;;;;;;;1.73;1.50;;;;;;;21.06;60.43;99694.31;10332458;28;20532;-71
2023/07/21 14:05:34;;;;;;;1.73;1.42;;;;;;;21.06;60.20;99695.13;10334466;28;20103;-73
2023/07/21 14:10:36;;;;;;;3.15;1.63;;;;;;;21.17;61.69;99699.13;10331651;28;20062;-70
2023/07/21 14:15:37;;;;;;;2.72;1.90;;;;;;;21.31;61.14;99708.09;10334541;28;21084;-70
2023/07/21 14:20:39;;;;;;;2.55;1.45;;;;;;;21.24;60.63;99701.81;10332493;28;20128;-72
2023/07/21 14:25:42;;;;;;;2.03;1.47;;;;;;;21.17;60.46;99701.84;10334222;28;20129;-72
2023/07/21 14:30:44;;;;;;;3.03;1.90;;;;;;;21.10;60.63;99699.09;10331548;28;20050;-69
2023/07/21 14:35:45;;;;;;;1.80;1.65;;;;;;;21.16;61.29;99700.97;10333196;28;20057;-69
2023/07/21 14:40:47;;;;;;;1.98;1.70;;;;;;;21.11;59.99;99703.50;10337639;28;21016;-72
2023/07/21 14:45:49;;;;;;;1.80;1.35;;;;;;;20.96;60.74;99705.56;10329740;28;20101;-70
2023/07/21 14:50:51;;;;;;;2.20;1.48;;;;;;;20.64;63.06;99707.91;10332282;28;20081;-70
2023/07/21 14:55:53;;;;;;;1.52;1.20;;;;;;;20.42;64.07;99716.16;10336611;28;20057;-72
2023/07/21 15:00:55;;;;;;;2.83;1.50;;;;;;;20.62;64.77;99704.56;10339271;28;20128;-70
2023/07/21 15:05:57;;;;;;;1.35;1.17;;;;;;;20.82;62.81;99701.94;10326482;28;20053;-69
2023/07/21 15:10:59;;;;;;;1.50;0.75;;;;;;;21.04;60.90;99691.81;10330882;28;20053;-70
2023/07/21 15:16:00;;;;;;;1.10;0.70;;;;;;;21.14;59.46;99702.25;10328112;28;20050;-71
2023/07/21 15:21:01;;;;;;;1.42;0.50;;;;;;;21.23;57.91;99700.16;10329263;28;20144;-70
2023/07/21 15:26:03;;;;;;;0.70;0.52;;;;;;;21.23;55.17;99710.97;10328623;28;20802;-72
2023/07/21 15:31:06;;;;;;;0.80;0.50;;;;;;;21.18;56.64;99707.03;10332009;28;21036;-70
2023/07/21 15:36:08;;;;;;;2.25;0.63;;;;;;;21.36;53.93;99705.56;10330684;28;20143;-71
2023/07/21 15:41:09;;;;;;;1.83;0.68;;;;;;;21.39;54.52;99701.63;10328685;28;20050;-71
2023/07/21 15:46:11;;;;;;;0.98;0.73;;;;;;;21.35;51.70;99693.94;10327355;28;20129;-71
2023/07/21 15:51:15;;;;;;;1.92;0.63;;;;;;;21.29;54.14;99700.19;10329723;28;20160;-72
2023/07/21 15:56:16;;;;;;;1.60;0.60;;;;;;;21.35;52.36;99698.53;10330970;28;20050;-71
2023/07/21 16:01:18;;;;;;;2.35;0.80;;;;;;;21.41;52.82;99681.44;10325997;28;20380;-67
2023/07/21 16:06:19;;;;;;;1.35;0.70;;;;;;;21.48;54.00;99693.09;10327649;28;20042;-70
2023/07/21 16:11:21;;;;;;;2.55;0.85;;;;;;;21.62;53.24;99687.69;10325635;28;21321;-70
2023/07/21 16:16:23;;;;;;;2.70;1.30;;;;;;;21.65;52.31;99692.72;10328530;28;21468;-71
2023/07/21 16:21:25;;;;;;;1.05;0.77;;;;;;;21.52;51.88;99694.38;10328847;28;20045;-70
2023/07/21 16:26:26;;;;;;;2.35;1.00;;;;;;;21.51;51.50;99687.31;10327738;28;20058;-71
2023/07/21 16:31:31;;;;;;;2.42;1.00;;;;;;;21.47;50.92;99691.44;10326539;28;20060;-70
2023/07/21 16:36:33;;;;;;;2.28;1.35;;;;;;;21.46;50.89;99689.75;10328314;28;20054;-73
2023/07/21 16:41:35;;;;;;;2.30;0.88;;;;;;;21.42;51.15;99682.25;10328132;28;20402;-72
2023/07/21 16:46:37;;;;;;;2.33;1.05;;;;;;;21.44;51.15;99691.00;10331014;28;20159;-72
2023/07/21 16:51:38;;;;;;;0.90;0.80;;;;;;;21.37;50.73;99685.59;10368855;28;20113;-69
2023/07/21 16:56:40;;;;;;;1.45;1.00;;;;;;;21.28;52.82;99681.44;10338703;28;20045;-71
2023/07/21 17:01:41;;;;;;;2.78;1.30;;;;;;;21.21;54.42;99680.59;10335557;28;20073;-71
2023/07/21 17:06:42;;;;;;;2.40;1.13;;;;;;;21.21;56.03;99691.41;10334175;28;20136;-72
2023/07/21 17:11:44;;;;;;;1.52;1.08;;;;;;;21.11;57.00;99691.84;10335416;28;20053;-70
2023/07/21 17:16:46;;;;;;;2.22;1.67;;;;;;;21.15;57.49;99695.78;10334196;28;20057;-73
2023/07/21 17:21:48;;;;;;;2.05;1.60;;;;;;;21.16;57.88;99695.56;10328707;28;20085;-72
2023/07/21 17:26:52;;;;;;;1.75;1.20;;;;;;;21.23;57.76;99700.16;10333006;28;20045;-72
2023/07/21 17:31:54;;;;;;;1.88;1.67;;;;;;;21.14;57.65;99697.66;10301307;28;20284;-69
2023/07/21 17:36:56;;;;;;;1.50;1.40;;;;;;;21.08;58.80;99698.50;10330242;28;20092;-70
2023/07/21 17:41:57;;;;;;;2.03;1.67;;;;;;;21.10;58.70;99684.75;10334616;28;20061;-72
2023/07/21 17:46:59;;;;;;;2.45;1.80;;;;;;;21.10;58.31;99690.16;10332560;28;20133;-71
2023/07/21 17:52:00;;;;;;;2.10;1.90;;;;;;;21.03;58.69;99682.03;10339132;28;20086;-73
2023/07/21 17:57:02;;;;;;;1.52;1.42;;;;;;;21.00;58.65;99695.97;10339321;28;20049;-71
2023/07/21 18:02:05;;;;;;;1.83;1.52;;;;;;;20.93;58.60;99773.59;10331340;28;20045;-70
2023/07/21 18:07:08;;;;;;;7.37;3.27;;;;;;;20.58;60.98;99779.00;10334048;28;20427;-71
2023/07/21 18:12:09;;;;;;;4.53;2.10;;;;;;;20.29;63.39;99789.03;10332648;28;20197;-70
2023/07/21 18:17:10;;;;;;;4.20;1.80;;;;;;;20.01;64.21;99816.94;10338087;28;20042;-71
2023/07/21 18:22:13;;;;;;;5.20;2.53;;;;;;;19.57;68.18;99799.06;10332872;28;20600;-71
2023/07/21 18:27:14;;;;;;;2.63;1.70;;;;;;;19.49;67.84;99801.91;10335680;28;20058;-71
2023/07/21 18:32:15;;;;;;;4.03;1.38;;;;;;;19.44;68.46;99810.53;10335595;28;20424;-71
2023/07/21 18:37:17;;;;;;;4.43;2.05;;;;;;;19.40;69.36;99812.81;10331502;28;20052;-68
2023/07/21 18:42:19;;;;;;;2.60;1.67;;;;;;;19.35;69.65;99823.34;10330888;28;20057;-68
2023/07/21 18:47:20;;;;;;;2.78;1.88;;;;;;;19.30;70.60;99828.47;10331443;28;20060;-71
2023/07/21 18:52:22;;;;;;;4.18;2.35;;;;;;;19.26;71.57;99838.00;10332875;28;20064;-71
2023/07/21 18:57:23;;;;;;;3.03;1.90;;;;;;;19.25;70.60;99830.91;10330776;28;20084;-69
2023/07/21 19:02:25;;;;;;;4.97;1.95;;;;;;;19.22;71.12;99839.38;10333178;28;20053;-70
2023/07/21 19:07:26;;;;;;;3.88;1.52;;;;;;;19.15;69.62;99833.06;10334449;28;20127;-70
2023/07/21 19:12:28;;;;;;;4.05;1.90;;;;;;;19.07;72.09;99836.72;10334595;28;20519;-69
2023/07/21 19:17:31;;;;;;;3.10;2.00;;;;;;;19.07;69.72;99842.13;10328918;28;20049;-68
2023/07/21 19:22:33;;;;;;;4.15;1.80;;;;;;;19.00;69.99;99858.22;10330628;28;20103;-72
2023/07/21 19:27:37;;;;;;;2.78;1.60;;;;;;;18.98;71.35;99860.25;10330436;28;20053;-73
2023/07/21 19:32:42;;;;;;;2.90;1.85;;;;;;;18.99;71.98;99861.94;10328644;28;20135;-73
2023/07/21 19:37:43;;;;;;;3.22;2.00;;;;;;;18.94;71.10;99875.13;10330637;28;20070;-70
2023/07/21 19:42:45;;;;;;;2.90;1.70;;;;;;;18.93;71.15;99881.59;10329395;28;20646;-72
2023/07/21 19:47:46;;;;;;;3.15;2.08;;;;;;;18.89;72.06;99891.06;10332517;28;20196;-70
2023/07/21 19:52:48;;;;;;;4.50;2.17;;;;;;;18.86;72.50;99894.13;10330598;28;20089;-71
2023/07/21 19:57:50;;;;;;;3.08;1.80;;;;;;;18.84;72.78;99888.91;10331832;28;20623;-70
2023/07/21 20:02:52;;;;;;;4.57;2.72;;;;;;;18.84;72.97;99899.69;10324622;28;20042;-71
2023/07/21 20:07:54;;;;;;;3.38;2.55;;;;;;;18.73;72.28;99909.06;10331368;28;20058;-71
2023/07/21 20:12:56;;;;;;;3.08;2.20;;;;;;;18.71;73.40;99913.78;10326957;28;20144;-72
2023/07/21 20:17:58;;;;;;;4.25;2.13;;;;;;;18.68;73.11;99914.16;10329264;28;20046;-69
2023/07/21 20:23:00;;;;;;;2.85;2.15;;;;;;;18.66;73.17;99916.22;10328249;28;20107;-72
2023/07/21 20:28:01;;;;;;;3.40;2.40;;;;;;;18.68;73.43;99914.16;10324618;28;20782;-72
2023/07/21 20:33:02;;;;;;;3.17;2.55;;;;;;;18.70;73.96;99933.69;10324280;28;20054;-71
2023/07/21 20:38:04;;;;;;;2.53;2.10;;;;;;;18.71;73.66;99935.38;10331853;28;20078;-72
2023/07/21 20:43:06;;;;;;;3.38;2.70;;;;;;;18.65;73.96;99937.97;10326797;28;20054;-72
2023/07/21 20:48:09;;;;;;;3.10;2.58;;;;;;;18.61;75.11;99942.03;10330096;28;20713;-71
2023/07/21 20:53:10;;;;;;;3.67;2.50;;;;;;;18.63;75.71;99938.16;10325700;28;20136;-70
2023/07/21 20:58:11;;;;;;;2.90;2.45;;;;;;;18.61;75.37;99948.25;10332161;28;20061;-72
2023/07/21 21:03:13;;;;;;;4.47;3.00;;;;;;;18.54;74.08;99958.13;10328855;28;20123;-70
2023/07/21 21:08:15;;;;;;;3.95;2.90;;;;;;;18.52;75.59;99968.22;10330111;28;20107;-69
2023/07/21 21:13:16;;;;;;;4.45;3.38;;;;;;;18.55;76.30;99984.03;10327160;28;20050;-72
2023/07/21 21:18:17;;;;;;;5.45;2.90;;;;;;;18.57;76.20;99982.03;10325391;28;20707;-72
2023/07/21 21:23:19;;;;;;;7.03;4.35;;;;;;;18.58;77.65;99978.28;10328936;28;20801;-71
2023/07/21 21:28:25;;;;;;;4.07;3.28;;;;;;;18.59;75.78;99979.13;10330789;28;20716;-76
2023/07/21 21:33:28;;;;;;;4.55;3.78;;;;;;;18.60;75.81;99984.34;10324935;28;20053;-76
2023/07/21 21:38:29;;;;;;;3.67;2.90;;;;;;;18.59;76.73;100006.91;10338487;28;20065;-77
2023/07/21 21:43:30;;;;;;;6.15;3.30;;;;;;;18.61;77.67;99983.31;10370039;28;20121;-76
2023/07/21 21:48:32;;;;;;;4.82;3.95;;;;;;;18.63;78.72;99991.22;10356954;28;20046;-72
2023/07/21 21:53:33;;;;;;;4.90;3.80;;;;;;;18.62;76.72;99995.78;10356056;28;20053;-71
2023/07/21 21:58:35;;;;;;;5.63;3.75;;;;;;;18.68;78.26;99997.72;10351330;28;20038;-70
2023/07/21 22:03:39;;;;;;;4.65;4.13;;;;;;;18.71;78.85;100002.75;10337986;28;20548;-71
2023/07/21 22:08:40;;;;;;;4.80;4.15;;;;;;;18.73;78.49;100003.44;10336224;28;20065;-74
2023/07/21 22:13:42;;;;;;;5.57;4.97;;;;;;;18.75;78.47;99994.31;10344321;28;20070;-74
2023/07/21 22:18:43;;;;;;;4.47;3.97;;;;;;;18.71;74.62;99997.38;10334080;28;20053;-70
2023/07/21 22:23:45;;;;;;;5.28;4.15;;;;;;;18.63;75.69;99992.06;10334138;28;20049;-74
2023/07/21 22:28:48;;;;;;;5.50;3.55;;;;;;;18.67;74.23;99997.91;10335813;28;20748;-75
2023/07/21 22:33:50;;;;;;;4.10;3.70;;;;;;;18.71;74.35;100005.44;10332968;28;20420;-73
2023/07/21 22:38:52;;;;;;;6.57;3.90;;;;;;;18.73;74.71;100006.13;10333339;28;20107;-76
2023/07/21 22:43:53;;;;;;;6.40;4.15;;;;;;;18.78;75.48;100004.72;10331790;28;20715;-71
2023/07/21 22:48:55;;;;;;;4.18;3.78;;;;;;;18.74;76.04;100006.97;10331755;28;20123;-75
2023/07/21 22:53:56;;;;;;;6.65;4.85;;;;;;;18.71;75.52;100010.03;10332008;28;20136;-76
2023/07/21 22:58:58;;;;;;;5.78;4.57;;;;;;;18.71;75.74;100018.94;10330554;28;20073;-73
2023/07/21 23:03:59;;;;;;;4.38;3.85;;;;;;;18.68;76.16;100022.00;10328117;28;20080;-77
2023/07/21 23:09:01;;;;;;;5.35;4.70;;;;;;;18.63;74.69;100019.03;10330382;28;20277;-71
2023/07/21 23:14:02;;;;;;;4.80;4.18;;;;;;;18.57;75.01;100019.75;10335328;28;20132;-74
2023/07/21 23:19:05;;;;;;;4.78;4.20;;;;;;;18.53;74.80;100029.22;10329419;28;20061;-74
2023/07/21 23:24:06;;;;;;;4.97;4.47;;;;;;;18.48;72.60;100023.50;10329020;28;20648;-75
2023/07/21 23:29:09;;;;;;;5.93;3.83;;;;;;;18.40;73.54;100016.34;10327227;28;20641;-72